sensor_id;sensor_type;location;lat;lon;timestamp;pressure;altitude;pressure_sealevel;temperature;humidity
10688;BME280;5392;42.688;23.298;2023-07-13T00:01:48;57269.41;;;-144.48;74.14
10688;BME280;5392;42.688;23.298;2023-07-13T00:04:17;57258.97;;;-144.48;75.07
10688;BME280;5392;42.688;23.298;2023-07-13T00:06:45;57275.66;;;-144.48;75.02
10688;BME280;5392;42.688;23.298;2023-07-13T00:09:14;57273.56;;;-144.48;75.34
10688;BME280;5392;42.688;23.298;2023-07-13T00:11:41;57263.16;;;-144.48;74.85
10688;BME280;5392;42.688;23.298;2023-07-13T00:14:08;57281.94;;;-144.48;73.81
10688;BME280;5392;42.688;23.298;2023-07-13T00:16:37;57273.56;;;-144.48;74.30
10688;BME280;5392;42.688;23.298;2023-07-13T00:19:05;57290.28;;;-144.48;74.05
10688;BME280;5392;42.688;23.298;2023-07-13T00:21:32;57252.72;;;-144.48;74.09
10688;BME280;5392;42.688;23.298;2023-07-13T00:23:59;57279.84;;;-144.48;75.27
10688;BME280;5392;42.688;23.298;2023-07-13T00:26:27;57298.63;;;-144.48;77.34
10688;BME280;5392;42.688;23.298;2023-07-13T00:28:54;57254.78;;;-144.48;78.84
10688;BME280;5392;42.688;23.298;2023-07-13T00:31:21;57263.16;;;-144.48;81.19
10688;BME280;5392;42.688;23.298;2023-07-13T00:33:47;57231.84;;;-144.48;82.46
10688;BME280;5392;42.688;23.298;2023-07-13T00:36:14;57325.75;;;-144.48;84.06
10688;BME280;5392;42.688;23.298;2023-07-13T00:38:41;57296.53;;;-144.48;84.84
10688;BME280;5392;42.688;23.298;2023-07-13T00:41:08;57313.22;;;-144.48;85.81
10688;BME280;5392;42.688;23.298;2023-07-13T00:43:36;57267.31;;;-144.48;85.68
10688;BME280;5392;42.688;23.298;2023-07-13T00:46:12;57298.63;;;-144.48;85.92
10688;BME280;5392;42.688;23.298;2023-07-13T00:48:40;57311.16;;;-144.48;87.36
10688;BME280;5392;42.688;23.298;2023-07-13T00:51:09;57217.22;;;-144.48;89.06
10688;BME280;5392;42.688;23.298;2023-07-13T00:53:37;57296.53;;;-144.48;89.83
10688;BME280;5392;42.688;23.298;2023-07-13T00:56:04;57313.22;;;-144.48;89.63
10688;BME280;5392;42.688;23.298;2023-07-13T00:58:31;57309.06;;;-144.48;89.74
10688;BME280;5392;42.688;23.298;2023-07-13T01:00:58;57309.06;;;-144.48;89.77
10688;BME280;5392;42.688;23.298;2023-07-13T01:03:25;57267.31;;;-144.48;91.02
10688;BME280;5392;42.688;23.298;2023-07-13T01:05:52;57256.88;;;-144.48;90.97
10688;BME280;5392;42.688;23.298;2023-07-13T01:08:21;57311.16;;;-144.48;90.90
10688;BME280;5392;42.688;23.298;2023-07-13T01:10:53;57296.53;;;-144.48;90.87
10688;BME280;5392;42.688;23.298;2023-07-13T01:13:21;57290.28;;;-144.48;91.41
10688;BME280;5392;42.688;23.298;2023-07-13T01:15:49;57294.44;;;-144.48;92.36
10688;BME280;5392;42.688;23.298;2023-07-13T01:18:22;57329.94;;;-144.48;93.36
10688;BME280;5392;42.688;23.298;2023-07-13T01:21:03;57281.94;;;-144.48;93.13
10688;BME280;5392;42.688;23.298;2023-07-13T01:23:31;57256.88;;;-144.48;93.04
10688;BME280;5392;42.688;23.298;2023-07-13T01:25:58;57306.97;;;-144.48;93.30
10688;BME280;5392;42.688;23.298;2023-07-13T01:28:26;57292.38;;;-144.48;93.71
10688;BME280;5392;42.688;23.298;2023-07-13T01:30:57;57275.66;;;-144.48;94.63
10688;BME280;5392;42.688;23.298;2023-07-13T01:33:25;57288.19;;;-144.48;94.31
10688;BME280;5392;42.688;23.298;2023-07-13T01:35:52;57300.72;;;-144.48;93.86
10688;BME280;5392;42.688;23.298;2023-07-13T01:38:21;57306.97;;;-144.48;93.83
10688;BME280;5392;42.688;23.298;2023-07-13T01:40:50;57306.97;;;-144.48;94.68
10688;BME280;5392;42.688;23.298;2023-07-13T01:43:18;57267.31;;;-144.48;94.80
10688;BME280;5392;42.688;23.298;2023-07-13T01:45:45;57315.31;;;-144.48;93.71
10688;BME280;5392;42.688;23.298;2023-07-13T01:48:13;57315.31;;;-144.48;92.59
10688;BME280;5392;42.688;23.298;2023-07-13T01:50:40;57298.63;;;-144.48;93.58
10688;BME280;5392;42.688;23.298;2023-07-13T01:53:07;57290.28;;;-144.48;92.93
10688;BME280;5392;42.688;23.298;2023-07-13T01:55:35;57294.44;;;-144.48;92.70
10688;BME280;5392;42.688;23.298;2023-07-13T01:58:03;57250.63;;;-144.48;94.26
10688;BME280;5392;42.688;23.298;2023-07-13T02:00:30;57290.28;;;-144.48;95.35
10688;BME280;5392;42.688;23.298;2023-07-13T02:02:57;57279.84;;;-144.48;95.00
10688;BME280;5392;42.688;23.298;2023-07-13T02:05:24;57300.72;;;-144.48;94.85
10688;BME280;5392;42.688;23.298;2023-07-13T02:07:51;57271.50;;;-144.48;95.11
10688;BME280;5392;42.688;23.298;2023-07-13T02:10:19;57275.66;;;-144.48;96.02
10688;BME280;5392;42.688;23.298;2023-07-13T02:12:48;57290.28;;;-144.48;96.63
10688;BME280;5392;42.688;23.298;2023-07-13T02:15:17;57290.28;;;-144.48;97.31
10688;BME280;5392;42.688;23.298;2023-07-13T02:17:44;57275.66;;;-144.48;97.53
10688;BME280;5392;42.688;23.298;2023-07-13T02:20:11;57284.00;;;-144.48;97.88
10688;BME280;5392;42.688;23.298;2023-07-13T02:22:38;57342.47;;;-144.48;98.09
10688;BME280;5392;42.688;23.298;2023-07-13T02:25:05;57284.00;;;-144.48;98.78
10688;BME280;5392;42.688;23.298;2023-07-13T02:27:32;57258.97;;;-144.48;98.24
10688;BME280;5392;42.688;23.298;2023-07-13T02:29:59;57265.22;;;-144.48;96.98
10688;BME280;5392;42.688;23.298;2023-07-13T02:32:25;57277.75;;;-144.48;96.48
10688;BME280;5392;42.688;23.298;2023-07-13T02:34:53;57269.41;;;-144.48;95.92
10688;BME280;5392;42.688;23.298;2023-07-13T02:37:19;57319.50;;;-144.48;96.55
10688;BME280;5392;42.688;23.298;2023-07-13T02:39:46;57298.63;;;-144.48;97.60
10688;BME280;5392;42.688;23.298;2023-07-13T02:42:14;57275.66;;;-144.48;97.74
10688;BME280;5392;42.688;23.298;2023-07-13T02:44:41;57258.97;;;-144.48;98.08
10688;BME280;5392;42.688;23.298;2023-07-13T02:47:08;57302.81;;;-144.48;98.46
10688;BME280;5392;42.688;23.298;2023-07-13T02:49:35;57252.72;;;-144.48;98.66
10688;BME280;5392;42.688;23.298;2023-07-13T02:52:03;57286.09;;;-144.48;98.13
10688;BME280;5392;42.688;23.298;2023-07-13T02:54:30;57296.53;;;-144.48;97.93
10688;BME280;5392;42.688;23.298;2023-07-13T02:56:57;57271.50;;;-144.48;97.39
10688;BME280;5392;42.688;23.298;2023-07-13T02:59:23;57323.66;;;-144.48;97.18
10688;BME280;5392;42.688;23.298;2023-07-13T03:01:50;57290.28;;;-144.48;96.51
10688;BME280;5392;42.688;23.298;2023-07-13T03:04:17;57261.06;;;-144.48;96.49
10688;BME280;5392;42.688;23.298;2023-07-13T03:06:46;57294.44;;;-144.48;96.40
10688;BME280;5392;42.688;23.298;2023-07-13T03:09:13;57254.78;;;-144.48;96.24
10688;BME280;5392;42.688;23.298;2023-07-13T03:11:40;57258.97;;;-144.48;97.44
10688;BME280;5392;42.688;23.298;2023-07-13T03:14:08;57319.50;;;-144.48;97.04
10688;BME280;5392;42.688;23.298;2023-07-13T03:16:34;57277.75;;;-144.48;96.90
10688;BME280;5392;42.688;23.298;2023-07-13T03:19:01;57261.06;;;-144.48;95.88
10688;BME280;5392;42.688;23.298;2023-07-13T03:21:28;57267.31;;;-144.48;93.63
10688;BME280;5392;42.688;23.298;2023-07-13T03:23:55;57246.44;;;-144.48;92.86
10688;BME280;5392;42.688;23.298;2023-07-13T03:26:22;57292.38;;;-144.48;91.27
10688;BME280;5392;42.688;23.298;2023-07-13T03:28:49;57292.38;;;-144.48;88.76
10688;BME280;5392;42.688;23.298;2023-07-13T03:31:19;57298.63;;;-144.48;86.31
10688;BME280;5392;42.688;23.298;2023-07-13T03:33:47;57269.41;;;-144.48;83.00
10688;BME280;5392;42.688;23.298;2023-07-13T03:36:23;57267.31;;;-144.48;80.76
10688;BME280;5392;42.688;23.298;2023-07-13T03:38:52;57271.50;;;-144.48;77.11
10688;BME280;5392;42.688;23.298;2023-07-13T03:41:20;57233.91;;;-144.48;74.51
10688;BME280;5392;42.688;23.298;2023-07-13T03:43:47;57258.97;;;-144.48;72.61
10688;BME280;5392;42.688;23.298;2023-07-13T03:46:15;57244.34;;;-144.48;69.64
10688;BME280;5392;42.688;23.298;2023-07-13T03:48:44;57271.50;;;-144.48;66.88
10688;BME280;5392;42.688;23.298;2023-07-13T03:51:13;57242.28;;;-144.48;65.00
10688;BME280;5392;42.688;23.298;2023-07-13T03:53:42;57221.41;;;-144.48;63.12
10688;BME280;5392;42.688;23.298;2023-07-13T03:56:10;57240.19;;;-144.48;62.16
10688;BME280;5392;42.688;23.298;2023-07-13T03:58:39;57233.91;;;-144.48;60.25
10688;BME280;5392;42.688;23.298;2023-07-13T04:01:08;57240.19;;;-144.48;58.70
10688;BME280;5392;42.688;23.298;2023-07-13T04:03:36;57250.63;;;-144.48;57.69
10688;BME280;5392;42.688;23.298;2023-07-13T04:06:05;57242.28;;;-144.48;57.06
10688;BME280;5392;42.688;23.298;2023-07-13T04:08:35;57196.34;;;-144.48;56.60
10688;BME280;5392;42.688;23.298;2023-07-13T04:11:03;57192.19;;;-144.48;55.29
10688;BME280;5392;42.688;23.298;2023-07-13T04:13:30;57183.84;;;-144.48;54.15
10688;BME280;5392;42.688;23.298;2023-07-13T04:15:57;57206.78;;;-144.48;54.24
10688;BME280;5392;42.688;23.298;2023-07-13T04:18:24;57188.00;;;-144.48;53.42
10688;BME280;5392;42.688;23.298;2023-07-13T04:20:51;57183.84;;;-144.48;52.16
10688;BME280;5392;42.688;23.298;2023-07-13T04:23:18;57196.34;;;-144.48;51.18
10688;BME280;5392;42.688;23.298;2023-07-13T04:25:49;57192.19;;;-144.48;50.30
10688;BME280;5392;42.688;23.298;2023-07-13T04:28:19;57162.97;;;-144.48;50.85
10688;BME280;5392;42.688;23.298;2023-07-13T04:30:46;57148.34;;;-144.48;50.64
10688;BME280;5392;42.688;23.298;2023-07-13T04:33:13;57169.22;;;-144.48;49.95
10688;BME280;5392;42.688;23.298;2023-07-13T04:35:39;57131.66;;;-144.48;49.23
10688;BME280;5392;42.688;23.298;2023-07-13T04:38:06;57137.91;;;-144.48;47.99
10688;BME280;5392;42.688;23.298;2023-07-13T04:40:33;57142.09;;;-144.48;47.88
10688;BME280;5392;42.688;23.298;2023-07-13T04:43:00;57165.03;;;-144.48;47.47
10688;BME280;5392;42.688;23.298;2023-07-13T04:45:26;57175.47;;;-144.48;46.46
10688;BME280;5392;42.688;23.298;2023-07-13T04:47:54;57158.78;;;-144.48;46.25
10688;BME280;5392;42.688;23.298;2023-07-13T04:50:20;57123.31;;;-144.48;46.90
10688;BME280;5392;42.688;23.298;2023-07-13T04:52:50;57121.22;;;-144.48;47.23
10688;BME280;5392;42.688;23.298;2023-07-13T04:55:18;57148.34;;;-144.48;47.98
10688;BME280;5392;42.688;23.298;2023-07-13T04:57:46;57162.97;;;-144.48;47.17
10688;BME280;5392;42.688;23.298;2023-07-13T05:00:13;57162.97;;;-144.48;47.28
10688;BME280;5392;42.688;23.298;2023-07-13T05:02:44;57154.59;;;-144.48;48.28
10688;BME280;5392;42.688;23.298;2023-07-13T05:05:12;57183.84;;;-144.48;47.23
10688;BME280;5392;42.688;23.298;2023-07-13T05:07:39;57179.66;;;-144.48;46.96
10688;BME280;5392;42.688;23.298;2023-07-13T05:10:06;57140.00;;;-144.48;47.02
10688;BME280;5392;42.688;23.298;2023-07-13T05:12:33;57171.31;;;-144.48;46.96
10688;BME280;5392;42.688;23.298;2023-07-13T05:15:01;57173.41;;;-144.48;46.23
10688;BME280;5392;42.688;23.298;2023-07-13T05:17:28;57131.66;;;-144.48;46.23
10688;BME280;5392;42.688;23.298;2023-07-13T05:19:55;57108.69;;;-144.48;45.41
10688;BME280;5392;42.688;23.298;2023-07-13T05:22:22;57140.00;;;-144.48;45.91
10688;BME280;5392;42.688;23.298;2023-07-13T05:24:48;57144.19;;;-144.48;46.79
10688;BME280;5392;42.688;23.298;2023-07-13T05:27:15;57146.25;;;-144.48;45.84
10688;BME280;5392;42.688;23.298;2023-07-13T05:29:42;57127.47;;;-144.48;45.95
10688;BME280;5392;42.688;23.298;2023-07-13T05:32:09;57156.69;;;-144.48;45.86
10688;BME280;5392;42.688;23.298;2023-07-13T05:34:36;57169.22;;;-144.48;45.20
10688;BME280;5392;42.688;23.298;2023-07-13T05:37:03;57117.03;;;-144.48;44.04
10688;BME280;5392;42.688;23.298;2023-07-13T05:39:30;57112.88;;;-144.48;43.00
10688;BME280;5392;42.688;23.298;2023-07-13T05:41:57;57131.66;;;-144.48;43.24
10688;BME280;5392;42.688;23.298;2023-07-13T05:44:23;57123.31;;;-144.48;43.72
10688;BME280;5392;42.688;23.298;2023-07-13T05:46:50;57160.88;;;-144.48;44.91
10688;BME280;5392;42.688;23.298;2023-07-13T05:49:17;57150.44;;;-144.48;45.39
10688;BME280;5392;42.688;23.298;2023-07-13T05:51:43;57119.13;;;-144.48;44.17
10688;BME280;5392;42.688;23.298;2023-07-13T05:54:10;57112.88;;;-144.48;43.83
10688;BME280;5392;42.688;23.298;2023-07-13T05:56:37;57119.13;;;-144.48;43.27
10688;BME280;5392;42.688;23.298;2023-07-13T05:59:04;57137.91;;;-144.48;42.97
10688;BME280;5392;42.688;23.298;2023-07-13T06:01:31;57131.66;;;-144.48;43.32
10688;BME280;5392;42.688;23.298;2023-07-13T06:03:58;57133.75;;;-144.48;43.95
10688;BME280;5392;42.688;23.298;2023-07-13T06:06:25;57129.56;;;-144.48;43.03
10688;BME280;5392;42.688;23.298;2023-07-13T06:08:51;57152.53;;;-144.48;43.07
10688;BME280;5392;42.688;23.298;2023-07-13T06:11:21;57110.78;;;-144.48;43.02
10688;BME280;5392;42.688;23.298;2023-07-13T06:13:49;57177.56;;;-144.48;43.92
10688;BME280;5392;42.688;23.298;2023-07-13T06:16:16;57179.66;;;-144.48;44.43
10688;BME280;5392;42.688;23.298;2023-07-13T06:18:44;57127.47;;;-144.48;43.56
10688;BME280;5392;42.688;23.298;2023-07-13T06:21:16;57127.47;;;-144.48;43.13
10688;BME280;5392;42.688;23.298;2023-07-13T06:23:44;57085.75;;;-144.48;42.05
10688;BME280;5392;42.688;23.298;2023-07-13T06:26:11;57081.56;;;-144.48;40.40
10688;BME280;5392;42.688;23.298;2023-07-13T06:28:38;57096.16;;;-144.48;41.52
10688;BME280;5392;42.688;23.298;2023-07-13T06:31:08;57077.38;;;-144.48;40.63
10688;BME280;5392;42.688;23.298;2023-07-13T06:33:36;57058.59;;;-144.48;40.03
10688;BME280;5392;42.688;23.298;2023-07-13T06:36:05;57062.78;;;-144.48;39.49
10688;BME280;5392;42.688;23.298;2023-07-13T06:38:32;57066.94;;;-144.48;38.85
10688;BME280;5392;42.688;23.298;2023-07-13T06:40:59;57066.94;;;-144.48;39.41
10688;BME280;5392;42.688;23.298;2023-07-13T06:43:26;57085.75;;;-144.48;39.23
10688;BME280;5392;42.688;23.298;2023-07-13T06:45:55;57033.56;;;-144.48;38.42
10688;BME280;5392;42.688;23.298;2023-07-13T06:48:22;57062.78;;;-144.48;39.30
10688;BME280;5392;42.688;23.298;2023-07-13T06:50:49;57071.13;;;-144.48;39.78
10688;BME280;5392;42.688;23.298;2023-07-13T06:53:18;57064.88;;;-144.48;39.37
10688;BME280;5392;42.688;23.298;2023-07-13T06:55:46;57087.81;;;-144.48;39.23
10688;BME280;5392;42.688;23.298;2023-07-13T06:58:14;57096.16;;;-144.48;39.99
10688;BME280;5392;42.688;23.298;2023-07-13T07:00:41;57110.78;;;-144.48;39.32
10688;BME280;5392;42.688;23.298;2023-07-13T07:03:08;57052.34;;;-144.48;39.70
10688;BME280;5392;42.688;23.298;2023-07-13T07:05:35;57058.59;;;-144.48;40.05
10688;BME280;5392;42.688;23.298;2023-07-13T07:08:02;57117.03;;;-144.48;40.58
10688;BME280;5392;42.688;23.298;2023-07-13T07:10:30;57123.31;;;-144.48;41.71
10688;BME280;5392;42.688;23.298;2023-07-13T07:12:57;57117.03;;;-144.48;40.25
10688;BME280;5392;42.688;23.298;2023-07-13T07:15:24;57121.22;;;-144.48;40.77
10688;BME280;5392;42.688;23.298;2023-07-13T07:17:51;57104.53;;;-144.48;41.10
10688;BME280;5392;42.688;23.298;2023-07-13T07:20:18;57106.59;;;-144.48;39.77
10688;BME280;5392;42.688;23.298;2023-07-13T07:22:47;57083.66;;;-144.48;39.75
10688;BME280;5392;42.688;23.298;2023-07-13T07:25:14;57087.81;;;-144.48;40.97
10688;BME280;5392;42.688;23.298;2023-07-13T07:27:41;57121.22;;;-144.48;40.86
10688;BME280;5392;42.688;23.298;2023-07-13T07:30:11;57119.13;;;-144.48;40.56
10688;BME280;5392;42.688;23.298;2023-07-13T07:32:41;57106.59;;;-144.48;40.31
10688;BME280;5392;42.688;23.298;2023-07-13T07:35:11;57100.34;;;-144.48;40.13
10688;BME280;5392;42.688;23.298;2023-07-13T07:37:38;57077.38;;;-144.48;40.18
10688;BME280;5392;42.688;23.298;2023-07-13T07:40:08;57094.09;;;-144.48;40.03
10688;BME280;5392;42.688;23.298;2023-07-13T07:42:37;57119.13;;;-144.48;40.17
10688;BME280;5392;42.688;23.298;2023-07-13T07:45:04;57079.47;;;-144.48;39.40
10688;BME280;5392;42.688;23.298;2023-07-13T07:47:31;57098.25;;;-144.48;40.90
10688;BME280;5392;42.688;23.298;2023-07-13T07:49:58;57108.69;;;-144.48;40.78
10688;BME280;5392;42.688;23.298;2023-07-13T07:52:25;57173.41;;;-144.48;41.63
10688;BME280;5392;42.688;23.298;2023-07-13T07:54:51;57131.66;;;-144.48;42.00
10688;BME280;5392;42.688;23.298;2023-07-13T07:57:21;57069.03;;;-144.48;41.08
10688;BME280;5392;42.688;23.298;2023-07-13T07:59:50;57154.59;;;-144.48;41.80
10688;BME280;5392;42.688;23.298;2023-07-13T08:02:20;57175.47;;;-144.48;42.78
10688;BME280;5392;42.688;23.298;2023-07-13T08:04:50;57144.19;;;-144.48;43.30
10688;BME280;5392;42.688;23.298;2023-07-13T08:07:19;57185.91;;;-144.48;43.93
10688;BME280;5392;42.688;23.298;2023-07-13T08:09:46;57152.53;;;-144.48;43.60
10688;BME280;5392;42.688;23.298;2023-07-13T08:12:13;57179.66;;;-144.48;43.66
10688;BME280;5392;42.688;23.298;2023-07-13T08:14:43;57158.78;;;-144.48;43.82
10688;BME280;5392;42.688;23.298;2023-07-13T08:17:20;57125.38;;;-144.48;42.69
10688;BME280;5392;42.688;23.298;2023-07-13T08:19:47;57148.34;;;-144.48;41.71
10688;BME280;5392;42.688;23.298;2023-07-13T08:22:13;57165.03;;;-144.48;41.48
10688;BME280;5392;42.688;23.298;2023-07-13T08:24:41;57112.88;;;-144.48;41.30
10688;BME280;5392;42.688;23.298;2023-07-13T08:27:10;57100.34;;;-144.48;41.60
10688;BME280;5392;42.688;23.298;2023-07-13T08:29:38;57119.13;;;-144.48;42.13
10688;BME280;5392;42.688;23.298;2023-07-13T08:32:06;57129.56;;;-144.48;41.53
10688;BME280;5392;42.688;23.298;2023-07-13T08:34:36;57158.78;;;-144.48;42.65
10688;BME280;5392;42.688;23.298;2023-07-13T08:37:03;57135.81;;;-144.48;42.63
10688;BME280;5392;42.688;23.298;2023-07-13T08:39:30;57121.22;;;-144.48;41.86
10688;BME280;5392;42.688;23.298;2023-07-13T08:42:31;57106.59;;;-144.48;40.89
10688;BME280;5392;42.688;23.298;2023-07-13T08:45:12;57112.88;;;-144.48;40.91
10688;BME280;5392;42.688;23.298;2023-07-13T08:47:47;57108.69;;;-144.48;40.90
10688;BME280;5392;42.688;23.298;2023-07-13T08:50:17;57104.53;;;-144.48;40.60
10688;BME280;5392;42.688;23.298;2023-07-13T08:52:46;57083.66;;;-144.48;38.86
10688;BME280;5392;42.688;23.298;2023-07-13T08:55:34;57064.88;;;-144.48;38.60
10688;BME280;5392;42.688;23.298;2023-07-13T08:58:15;57052.34;;;-144.48;39.05
10688;BME280;5392;42.688;23.298;2023-07-13T09:01:02;57110.78;;;-144.48;38.38
10688;BME280;5392;42.688;23.298;2023-07-13T09:09:29;57041.91;;;-144.48;38.62
10688;BME280;5392;42.688;23.298;2023-07-13T09:12:30;57081.56;;;-144.48;39.32
10688;BME280;5392;42.688;23.298;2023-07-13T09:14:59;57087.81;;;-144.48;40.67
10688;BME280;5392;42.688;23.298;2023-07-13T09:17:29;57106.59;;;-144.48;42.83
10688;BME280;5392;42.688;23.298;2023-07-13T09:20:20;57144.19;;;-144.48;43.24
10688;BME280;5392;42.688;23.298;2023-07-13T09:22:48;57152.53;;;-144.48;44.49
10688;BME280;5392;42.688;23.298;2023-07-13T09:25:32;57162.97;;;-144.48;44.42
10688;BME280;5392;42.688;23.298;2023-07-13T09:28:11;57137.91;;;-144.48;43.79
10688;BME280;5392;42.688;23.298;2023-07-13T09:31:03;57125.38;;;-144.48;44.34
10688;BME280;5392;42.688;23.298;2023-07-13T09:33:31;57196.34;;;-144.48;44.29
10688;BME280;5392;42.688;23.298;2023-07-13T09:35:58;57171.31;;;-144.48;44.65
10688;BME280;5392;42.688;23.298;2023-07-13T09:38:28;57154.59;;;-144.48;44.69
10688;BME280;5392;42.688;23.298;2023-07-13T09:41:05;57154.59;;;-144.48;44.37
10688;BME280;5392;42.688;23.298;2023-07-13T09:43:38;57112.88;;;-144.48;44.22
10688;BME280;5392;42.688;23.298;2023-07-13T09:46:22;57152.53;;;-144.48;43.84
10688;BME280;5392;42.688;23.298;2023-07-13T09:48:49;57112.88;;;-144.48;43.74
10688;BME280;5392;42.688;23.298;2023-07-13T09:51:16;57127.47;;;-144.48;43.65
10688;BME280;5392;42.688;23.298;2023-07-13T09:53:43;57148.34;;;-144.48;44.36
10688;BME280;5392;42.688;23.298;2023-07-13T09:56:26;57144.19;;;-144.48;44.31
10688;BME280;5392;42.688;23.298;2023-07-13T09:58:53;57200.53;;;-144.48;42.92
10688;BME280;5392;42.688;23.298;2023-07-13T10:01:37;57142.09;;;-144.48;43.57
10688;BME280;5392;42.688;23.298;2023-07-13T10:04:12;57177.56;;;-144.48;42.16
10688;BME280;5392;42.688;23.298;2023-07-13T10:06:40;57096.16;;;-144.48;41.91
10688;BME280;5392;42.688;23.298;2023-07-13T10:09:13;57110.78;;;-144.48;41.72
10688;BME280;5392;42.688;23.298;2023-07-13T10:11:41;57089.91;;;-144.48;39.99
10688;BME280;5392;42.688;23.298;2023-07-13T10:14:19;57123.31;;;-144.48;39.96
10688;BME280;5392;42.688;23.298;2023-07-13T10:16:47;57102.44;;;-144.48;39.49
10688;BME280;5392;42.688;23.298;2023-07-13T10:19:24;57112.88;;;-144.48;39.17
10688;BME280;5392;42.688;23.298;2023-07-13T10:24:26;57110.78;;;-144.48;39.76
10688;BME280;5392;42.688;23.298;2023-07-13T10:29:36;57165.03;;;-144.48;39.74
10688;BME280;5392;42.688;23.298;2023-07-13T10:32:10;57092.00;;;-144.48;39.12
10688;BME280;5392;42.688;23.298;2023-07-13T10:34:39;57094.09;;;-144.48;39.40
10688;BME280;5392;42.688;23.298;2023-07-13T10:37:07;57098.25;;;-144.48;39.30
10688;BME280;5392;42.688;23.298;2023-07-13T10:39:42;57087.81;;;-144.48;39.04
10688;BME280;5392;42.688;23.298;2023-07-13T10:42:15;57129.56;;;-144.48;38.85
10688;BME280;5392;42.688;23.298;2023-07-13T10:44:42;57104.53;;;-144.48;38.98
10688;BME280;5392;42.688;23.298;2023-07-13T10:47:16;57110.78;;;-144.48;39.21
10688;BME280;5392;42.688;23.298;2023-07-13T10:49:53;57100.34;;;-144.48;39.40
10688;BME280;5392;42.688;23.298;2023-07-13T10:52:45;57089.91;;;-144.48;38.59
10688;BME280;5392;42.688;23.298;2023-07-13T10:59:00;57121.22;;;-144.48;39.47
10688;BME280;5392;42.688;23.298;2023-07-13T11:01:16;57112.88;;;-144.48;39.40
10688;BME280;5392;42.688;23.298;2023-07-13T11:08:53;57129.56;;;-144.48;39.77
10688;BME280;5392;42.688;23.298;2023-07-13T11:13:58;57119.13;;;-144.48;39.96
10688;BME280;5392;42.688;23.298;2023-07-13T11:16:37;57089.91;;;-144.48;39.04
10688;BME280;5392;42.688;23.298;2023-07-13T11:21:34;57094.09;;;-144.48;39.35
10688;BME280;5392;42.688;23.298;2023-07-13T11:24:04;57127.47;;;-144.48;39.24
10688;BME280;5392;42.688;23.298;2023-07-13T11:26:50;57089.91;;;-144.48;39.27
10688;BME280;5392;42.688;23.298;2023-07-13T11:29:24;57075.31;;;-144.48;39.55
10688;BME280;5392;42.688;23.298;2023-07-13T11:31:54;57119.13;;;-144.48;39.06
10688;BME280;5392;42.688;23.298;2023-07-13T11:34:28;57092.00;;;-144.48;39.22
10688;BME280;5392;42.688;23.298;2023-07-13T11:36:59;57106.59;;;-144.48;39.47
10688;BME280;5392;42.688;23.298;2023-07-13T11:39:35;57114.97;;;-144.48;39.75
10688;BME280;5392;42.688;23.298;2023-07-13T11:42:05;57119.13;;;-144.48;40.31
10688;BME280;5392;42.688;23.298;2023-07-13T11:44:34;57119.13;;;-144.48;40.36
10688;BME280;5392;42.688;23.298;2023-07-13T11:47:10;57085.75;;;-144.48;40.38
10688;BME280;5392;42.688;23.298;2023-07-13T11:49:45;57110.78;;;-144.48;40.21
10688;BME280;5392;42.688;23.298;2023-07-13T11:52:28;57119.13;;;-144.48;40.12
10688;BME280;5392;42.688;23.298;2023-07-13T11:55:00;57108.69;;;-144.48;39.91
10688;BME280;5392;42.688;23.298;2023-07-13T11:57:30;57108.69;;;-144.48;40.06
10688;BME280;5392;42.688;23.298;2023-07-13T12:00:11;57125.38;;;-144.48;40.19
10688;BME280;5392;42.688;23.298;2023-07-13T12:02:42;57114.97;;;-144.48;39.77
10688;BME280;5392;42.688;23.298;2023-07-13T12:05:11;57079.47;;;-144.48;40.10
10688;BME280;5392;42.688;23.298;2023-07-13T12:07:39;57106.59;;;-144.48;40.27
10688;BME280;5392;42.688;23.298;2023-07-13T12:10:26;57121.22;;;-144.48;40.32
10688;BME280;5392;42.688;23.298;2023-07-13T12:12:57;57121.22;;;-144.48;39.97
10688;BME280;5392;42.688;23.298;2023-07-13T12:15:32;57119.13;;;-144.48;40.02
10688;BME280;5392;42.688;23.298;2023-07-13T12:18:02;57125.38;;;-144.48;39.86
10688;BME280;5392;42.688;23.298;2023-07-13T12:20:38;57114.97;;;-144.48;40.21
10688;BME280;5392;42.688;23.298;2023-07-13T12:23:06;57108.69;;;-144.48;40.20
10688;BME280;5392;42.688;23.298;2023-07-13T12:25:38;57108.69;;;-144.48;39.99
10688;BME280;5392;42.688;23.298;2023-07-13T12:28:39;57127.47;;;-144.48;39.81
10688;BME280;5392;42.688;23.298;2023-07-13T12:31:37;57102.44;;;-144.48;39.69
10688;BME280;5392;42.688;23.298;2023-07-13T12:34:09;57123.31;;;-144.48;39.80
10688;BME280;5392;42.688;23.298;2023-07-13T12:36:47;57096.16;;;-144.48;39.98
10688;BME280;5392;42.688;23.298;2023-07-13T12:39:36;57085.75;;;-144.48;39.50
10688;BME280;5392;42.688;23.298;2023-07-13T12:42:23;57094.09;;;-144.48;39.72
10688;BME280;5392;42.688;23.298;2023-07-13T12:47:24;57092.00;;;-144.48;39.41
10688;BME280;5392;42.688;23.298;2023-07-13T12:49:58;57071.13;;;-144.48;39.85
10688;BME280;5392;42.688;23.298;2023-07-13T12:52:31;57100.34;;;-144.48;39.66
10688;BME280;5392;42.688;23.298;2023-07-13T12:55:12;57104.53;;;-144.48;39.26
10688;BME280;5392;42.688;23.298;2023-07-13T12:57:54;57083.66;;;-144.48;38.99
10688;BME280;5392;42.688;23.298;2023-07-13T13:00:29;57081.56;;;-144.48;38.92
10688;BME280;5392;42.688;23.298;2023-07-13T13:03:04;57096.16;;;-144.48;39.21
10688;BME280;5392;42.688;23.298;2023-07-13T13:08:51;57100.34;;;-144.48;38.97
10688;BME280;5392;42.688;23.298;2023-07-13T13:11:19;57069.03;;;-144.48;38.91
10688;BME280;5392;42.688;23.298;2023-07-13T13:13:46;57075.31;;;-144.48;38.81
10688;BME280;5392;42.688;23.298;2023-07-13T13:18:55;57094.09;;;-144.48;39.13
10688;BME280;5392;42.688;23.298;2023-07-13T13:21:24;57066.94;;;-144.48;39.34
10688;BME280;5392;42.688;23.298;2023-07-13T13:23:51;57106.59;;;-144.48;39.30
10688;BME280;5392;42.688;23.298;2023-07-13T13:26:22;57133.75;;;-144.48;39.57
10688;BME280;5392;42.688;23.298;2023-07-13T13:28:49;57102.44;;;-144.48;39.26